TAF CYYB 230740Z 2308/2320 34008KT P6SM SCT030
TEMPO 2308/2318 BKN030
FM231800 27010KT P6SM BKN040 RMK FCST BASED ON AUTO OBS. NXT FCST BY 231400Z
From batch tds/tafs/production/2022/9/23/h07_m59_tafs.cache.xml
Issued (9 days ago)
Forecasts
2308/2318 34008KT P6SM SCT3000

---
fcst_time_to: '2022-09-23T18:00:00Z'
sky_condition:
- sky_cover: SCT
  cloud_base_ft_agl: '3000'
wind_speed_kt: '8'
fcst_time_from: '2022-09-23T08:00:00Z'
wind_dir_degrees: '340'
visibility_statute_mi: '6.21'

TEMPO 2308/2318 BKN3000

---
fcst_time_to: '2022-09-23T18:00:00Z'
sky_condition:
- sky_cover: BKN
  cloud_base_ft_agl: '3000'
fcst_time_from: '2022-09-23T08:00:00Z'
change_indicator: TEMPO

FM231800 27010KT P6SM BKN4000

---
fcst_time_to: '2022-09-23T20:00:00Z'
sky_condition:
- sky_cover: BKN
  cloud_base_ft_agl: '4000'
wind_speed_kt: '10'
fcst_time_from: '2022-09-23T18:00:00Z'
change_indicator: FM
wind_dir_degrees: '270'
visibility_statute_mi: '6.21'

talk